Time;durP1;ratioP1;P1;durP2;ratioP2;P2;SDS_P1;SDS_P2;PMS_P1;PMS_P2;Temp;Humidity;BMP_temperature;BMP_pressure;BME280_temperature;BME280_humidity;BME280_pressure;Samples;Min_cycle;Max_cycle;Signal;HPM_P1;HPM_P2
2023/11/26 00:00:36;;;;;;;5.87;5.17;;;5.60;99.90;;;;;;10299986;28;20278;-76
2023/11/26 00:05:38;;;;;;;9.37;6.07;;;5.70;99.90;;;;;;10314657;28;20235;-76
2023/11/26 00:10:42;;;;;;;8.53;6.07;;;5.70;99.90;;;;;;10320070;28;20203;-76
2023/11/26 00:15:44;;;;;;;7.27;6.63;;;5.70;99.90;;;;;;10315451;28;20224;-76
2023/11/26 00:20:47;;;;;;;7.50;6.60;;;5.70;99.90;;;;;;10314762;28;20255;-76
2023/11/26 00:25:56;;;;;;;6.07;5.57;;;5.80;99.90;;;;;;10289225;28;20708;-76
2023/11/26 00:31:02;;;;;;;5.30;4.70;;;5.90;99.90;;;;;;10289994;28;20207;-76
2023/11/26 00:36:08;;;;;;;6.03;5.30;;;5.80;99.90;;;;;;10288597;28;20216;-76
2023/11/26 00:41:13;;;;;;;5.50;5.03;;;5.80;99.90;;;;;;10288950;28;20200;-76
2023/11/26 00:46:18;;;;;;;5.50;5.20;;;5.80;99.90;;;;;;10288046;28;20240;-76
2023/11/26 00:51:20;;;;;;;6.07;5.60;;;5.90;99.90;;;;;;10313100;28;20216;-76
2023/11/26 00:56:24;;;;;;;5.77;4.93;;;5.90;99.90;;;;;;10269589;28;20204;-76
2023/11/26 01:01:26;;;;;;;7.03;5.43;;;6.00;99.90;;;;;;10286313;28;20208;-76
2023/11/26 01:06:28;;;;;;;7.40;6.70;;;6.00;99.90;;;;;;10285826;28;20228;-76
2023/11/26 01:11:32;;;;;;;6.27;5.70;;;6.00;99.90;;;;;;10267896;28;20228;-76
2023/11/26 01:16:34;;;;;;;5.37;4.80;;;6.10;99.90;;;;;;10267549;28;20200;-76
2023/11/26 01:21:39;;;;;;;6.50;4.60;;;6.10;99.90;;;;;;10278400;28;20219;-76
2023/11/26 01:26:43;;;;;;;7.47;4.67;;;6.10;99.90;;;;;;10324843;28;20223;-76
2023/11/26 01:31:45;;;;;;;6.80;4.80;;;6.00;99.90;;;;;;10324504;28;20223;-76
2023/11/26 01:36:48;;;;;;;7.97;5.10;;;6.10;99.90;;;;;;10291009;28;20582;-76
2023/11/26 01:41:52;;;;;;;5.03;4.53;;;6.10;99.90;;;;;;10323004;28;20222;-76
2023/11/26 01:46:56;;;;;;;5.43;4.87;;;6.20;99.90;;;;;;10321965;28;20715;-76
2023/11/26 01:52:01;;;;;;;6.80;5.43;;;6.20;99.90;;;;;;10297342;28;20228;-76
2023/11/26 01:57:08;;;;;;;4.33;4.03;;;6.20;99.90;;;;;;10304576;28;20187;-77
2023/11/26 02:02:10;;;;;;;5.17;4.23;;;6.20;99.90;;;;;;10297642;28;20231;-76
2023/11/26 02:07:13;;;;;;;4.80;4.10;;;6.20;99.90;;;;;;10301678;28;20262;-76
2023/11/26 02:12:18;;;;;;;4.67;3.90;;;6.10;99.90;;;;;;10301966;28;20803;-76
2023/11/26 02:17:21;;;;;;;4.53;4.23;;;6.10;99.90;;;;;;10301629;28;20258;-76
2023/11/26 02:22:24;;;;;;;4.63;4.10;;;6.00;99.90;;;;;;10307671;28;20226;-76
2023/11/26 02:27:28;;;;;;;4.60;4.17;;;5.90;99.90;;;;;;10300083;28;20278;-76
2023/11/26 02:32:30;;;;;;;5.50;4.00;;;5.80;99.90;;;;;;10299309;28;20294;-76
2023/11/26 02:37:32;;;;;;;4.60;4.10;;;5.80;99.90;;;;;;10299531;28;20202;-76
2023/11/26 02:42:36;;;;;;;4.67;3.80;;;5.70;99.90;;;;;;10299136;28;20624;-76
2023/11/26 02:47:39;;;;;;;5.17;4.03;;;5.70;99.90;;;;;;10314123;28;20228;-76
2023/11/26 02:52:41;;;;;;;7.23;4.60;;;5.70;99.90;;;;;;10275778;28;20262;-76
2023/11/26 02:57:46;;;;;;;6.67;4.17;;;5.70;99.90;;;;;;10295820;28;20187;-76
2023/11/26 03:02:48;;;;;;;5.57;4.00;;;5.60;99.90;;;;;;10341048;23;20258;-79
2023/11/26 03:07:52;;;;;;;4.17;3.77;;;5.60;99.90;;;;;;10333262;28;20251;-80
2023/11/26 03:13:11;;;;;;;3.83;3.43;;;5.60;99.90;;;;;;10308322;28;20227;-80
2023/11/26 03:18:14;;;;;;;4.50;4.10;;;5.70;99.90;;;;;;10313110;28;20192;-79
2023/11/26 03:23:16;;;;;;;4.60;4.20;;;5.80;99.90;;;;;;10283621;28;20211;-78
2023/11/26 03:28:20;;;;;;;4.30;3.73;;;5.80;99.90;;;;;;10300691;28;20557;-79
2023/11/26 03:33:23;;;;;;;4.40;4.00;;;5.90;99.90;;;;;;10300982;28;20223;-79
2023/11/26 03:38:25;;;;;;;4.47;4.07;;;5.90;99.90;;;;;;10317238;28;20686;-79
2023/11/26 03:43:29;;;;;;;3.70;3.40;;;5.90;99.90;;;;;;10321135;28;20215;-79
2023/11/26 03:48:31;;;;;;;3.57;3.30;;;5.90;99.90;;;;;;10329026;28;20242;-79
2023/11/26 03:53:33;;;;;;;4.63;3.23;;;5.90;99.90;;;;;;10295855;28;20222;-79
2023/11/26 03:58:38;;;;;;;3.27;2.97;;;5.80;99.90;;;;;;10296015;28;20250;-80
2023/11/26 04:03:41;;;;;;;2.93;2.67;;;5.80;99.90;;;;;;10313966;28;20242;-80
2023/11/26 04:08:43;;;;;;;3.13;2.80;;;5.80;99.90;;;;;;10313014;28;20226;-80
2023/11/26 04:13:47;;;;;;;5.17;3.30;;;5.80;99.90;;;;;;10295125;28;20227;-75
2023/11/26 04:18:49;;;;;;;4.00;2.70;;;5.70;99.90;;;;;;10294062;28;20207;-78
2023/11/26 04:23:52;;;;;;;3.10;2.90;;;5.70;99.90;;;;;;10293838;28;20243;-79
2023/11/26 04:28:56;;;;;;;3.03;2.70;;;5.70;99.90;;;;;;10310999;28;20267;-79
2023/11/26 04:34:00;;;;;;;2.97;2.60;;;5.70;99.90;;;;;;10311093;28;20705;-80
2023/11/26 04:39:03;;;;;;;2.73;2.40;;;5.70;99.90;;;;;;10310756;28;20255;-79
2023/11/26 04:44:07;;;;;;;4.50;2.37;;;5.70;99.90;;;;;;10309787;28;20632;-79
2023/11/26 04:49:09;;;;;;;3.23;2.93;;;5.60;99.90;;;;;;10310028;28;20692;-80
2023/11/26 04:54:12;;;;;;;3.30;3.00;;;5.60;99.90;;;;;;10314353;28;20231;-80
2023/11/26 04:59:16;;;;;;;3.53;3.23;;;5.60;99.90;;;;;;10300144;28;20203;-80
2023/11/26 05:04:19;;;;;;;3.03;2.83;;;5.70;99.90;;;;;;10305243;28;20231;-79
2023/11/26 05:09:22;;;;;;;3.40;2.90;;;5.70;99.90;;;;;;10304880;28;20238;-79
2023/11/26 05:14:26;;;;;;;2.60;2.50;;;5.70;99.90;;;;;;10305910;28;20257;-80
2023/11/26 05:19:28;;;;;;;3.40;2.87;;;5.70;99.90;;;;;;10329613;28;20192;-80
2023/11/26 05:24:31;;;;;;;3.50;3.20;;;5.70;99.90;;;;;;10302588;28;20220;-78
2023/11/26 05:29:35;;;;;;;2.90;2.70;;;5.70;99.90;;;;;;10303306;28;20196;-80
2023/11/26 05:34:37;;;;;;;2.53;2.37;;;5.70;99.90;;;;;;10285790;28;20679;-80
2023/11/26 05:39:40;;;;;;;2.73;2.53;;;5.70;99.90;;;;;;10301758;28;20207;-80
2023/11/26 05:44:43;;;;;;;2.80;2.60;;;5.70;99.90;;;;;;10309734;28;20313;-80
2023/11/26 05:49:46;;;;;;;2.67;2.30;;;5.70;99.90;;;;;;10321402;28;20207;-77
2023/11/26 05:54:48;;;;;;;2.77;2.53;;;5.60;99.90;;;;;;10301181;28;20219;-78
2023/11/26 05:59:52;;;;;;;2.37;2.27;;;5.50;99.90;;;;;;10298692;28;20616;-80
2023/11/26 06:04:54;;;;;;;3.07;2.87;;;5.50;99.90;;;;;;10296870;28;20275;-79
2023/11/26 06:09:57;;;;;;;3.23;3.00;;;5.40;99.90;;;;;;10296019;28;20200;-80
2023/11/26 06:15:00;;;;;;;4.03;2.87;;;5.40;99.90;;;;;;10297568;28;20231;-80
2023/11/26 06:20:03;;;;;;;2.67;2.47;;;5.40;99.90;;;;;;10332669;28;20207;-79
2023/11/26 06:25:09;;;;;;;4.13;2.80;;;5.40;99.90;;;;;;10299001;28;20227;-80
2023/11/26 06:30:14;;;;;;;3.10;2.33;;;5.40;99.90;;;;;;10312076;28;20200;-78
2023/11/26 06:35:17;;;;;;;2.57;2.37;;;5.50;99.90;;;;;;10312026;28;20227;-80
2023/11/26 06:40:20;;;;;;;2.73;2.57;;;5.50;99.90;;;;;;10314020;28;20231;-80
2023/11/26 06:45:23;;;;;;;3.10;2.80;;;5.60;99.90;;;;;;10312962;28;20212;-80
2023/11/26 06:50:26;;;;;;;4.80;2.77;;;5.60;99.90;;;;;;10333466;28;20203;-80
2023/11/26 06:55:28;;;;;;;3.23;2.87;;;5.70;99.90;;;;;;10311071;28;20208;-78
2023/11/26 07:00:32;;;;;;;3.50;3.30;;;5.70;99.90;;;;;;10309760;28;20673;-79
2023/11/26 07:05:35;;;;;;;3.10;2.80;;;5.70;99.90;;;;;;10306822;28;20231;-79
2023/11/26 07:10:37;;;;;;;2.67;2.53;;;5.80;99.90;;;;;;10302692;28;20208;-79
2023/11/26 07:15:41;;;;;;;3.67;2.80;;;5.80;99.90;;;;;;10304427;28;20208;-81
2023/11/26 07:20:43;;;;;;;3.57;3.13;;;5.90;99.90;;;;;;10332061;28;20203;-81
2023/11/26 07:25:45;;;;;;;3.30;3.10;;;5.90;99.90;;;;;;10307585;28;20275;-77
2023/11/26 07:30:49;;;;;;;3.10;2.90;;;6.00;99.90;;;;;;10306511;28;20207;-78
2023/11/26 07:35:51;;;;;;;2.50;2.30;;;6.00;99.90;;;;;;10304347;28;20723;-81
2023/11/26 07:40:54;;;;;;;3.30;3.00;;;6.00;99.90;;;;;;10306602;28;20196;-78
2023/11/26 07:45:57;;;;;;;3.50;3.20;;;6.10;99.90;;;;;;10302202;28;20302;-78
2023/11/26 07:51:02;;;;;;;2.70;2.50;;;6.20;99.90;;;;;;10277423;28;20210;-79
2023/11/26 07:56:06;;;;;;;3.50;3.20;;;6.20;99.90;;;;;;10302430;28;20283;-79
2023/11/26 08:01:12;;;;;;;3.83;3.50;;;6.30;99.90;;;;;;10287653;28;20191;-78
2023/11/26 08:06:15;;;;;;;3.40;3.10;;;6.30;99.90;;;;;;10287170;28;20255;-79
2023/11/26 08:11:17;;;;;;;3.10;2.90;;;6.40;99.90;;;;;;10298029;28;20575;-81
2023/11/26 08:16:22;;;;;;;4.63;4.17;;;6.30;99.90;;;;;;10297956;28;20227;-78
2023/11/26 08:21:27;;;;;;;5.50;3.63;;;6.40;99.90;;;;;;10296641;28;20216;-79
2023/11/26 08:26:33;;;;;;;3.93;3.27;;;6.40;99.90;;;;;;10299297;28;20216;-79
2023/11/26 08:31:39;;;;;;;3.97;3.57;;;6.40;99.90;;;;;;10291330;28;20212;-82
2023/11/26 08:36:42;;;;;;;3.87;3.57;;;6.50;99.90;;;;;;10305385;28;20983;-79
2023/11/26 08:41:45;;;;;;;3.70;3.40;;;6.50;99.90;;;;;;10306871;28;20214;-81
2023/11/26 08:46:48;;;;;;;4.27;3.80;;;6.60;99.90;;;;;;10303720;28;20224;-79
2023/11/26 08:51:51;;;;;;;5.10;3.70;;;6.60;99.90;;;;;;10309984;28;20199;-79
2023/11/26 08:56:53;;;;;;;4.10;3.70;;;6.70;99.90;;;;;;10306737;28;20231;-78
2023/11/26 09:01:57;;;;;;;6.50;4.90;;;6.70;99.90;;;;;;10304844;28;20199;-80
2023/11/26 09:06:59;;;;;;;6.57;4.13;;;6.80;99.90;;;;;;10321320;28;20215;-80
2023/11/26 09:12:03;;;;;;;4.57;4.17;;;6.80;99.90;;;;;;10302657;28;20266;-80
2023/11/26 09:17:06;;;;;;;4.40;4.00;;;6.90;99.90;;;;;;10320780;28;20704;-81
2023/11/26 09:22:09;;;;;;;4.80;4.40;;;7.00;99.90;;;;;;10324764;28;20258;-80
2023/11/26 09:27:11;;;;;;;4.63;4.17;;;7.10;99.90;;;;;;10318756;28;20234;-80
2023/11/26 09:32:15;;;;;;;4.77;4.37;;;7.20;99.90;;;;;;10303610;28;20230;-81
2023/11/26 09:37:18;;;;;;;4.27;3.73;;;7.20;99.90;;;;;;10309910;28;20204;-78
2023/11/26 09:42:22;;;;;;;5.57;5.00;;;7.30;99.90;;;;;;10305932;28;20220;-80
2023/11/26 09:47:28;;;;;;;4.73;4.33;;;7.40;99.90;;;;;;10318947;28;20273;-80
2023/11/26 09:52:31;;;;;;;5.30;4.00;;;7.50;99.90;;;;;;10319163;28;20361;-81
2023/11/26 09:57:34;;;;;;;4.60;4.20;;;7.50;99.90;;;;;;10330617;28;20212;-80
2023/11/26 10:02:38;;;;;;;5.00;4.50;;;7.60;99.90;;;;;;10325550;28;20226;-77
2023/11/26 10:07:43;;;;;;;7.33;4.53;;;7.70;99.90;;;;;;10322858;28;20254;-79
2023/11/26 10:12:53;;;;;;;4.63;4.20;;;7.70;99.90;;;;;;10320137;28;20224;-77
2023/11/26 10:18:03;;;;;;;5.00;4.07;;;7.70;99.90;;;;;;10327622;28;20243;-78
2023/11/26 10:23:07;;;;;;;7.07;4.97;;;7.70;99.90;;;;;;10326764;28;20239;-80
2023/11/26 10:28:14;;;;;;;6.30;4.20;;;7.80;99.90;;;;;;10326169;28;20579;-80
2023/11/26 10:33:18;;;;;;;4.00;3.70;;;7.80;99.90;;;;;;10320544;28;20227;-79
2023/11/26 10:38:24;;;;;;;7.63;4.20;;;8.00;99.90;;;;;;10317123;28;20543;-79
2023/11/26 10:43:27;;;;;;;7.10;4.20;;;8.10;99.90;;;;;;10327446;28;20798;-79
2023/11/26 10:48:33;;;;;;;4.13;3.83;;;8.20;99.90;;;;;;10309052;28;20234;-80
2023/11/26 10:53:42;;;;;;;4.83;4.43;;;8.30;99.90;;;;;;10304302;28;20277;-78
2023/11/26 10:58:48;;;;;;;6.47;4.17;;;8.40;99.90;;;;;;10322721;28;20188;-79
2023/11/26 11:03:53;;;;;;;11.40;4.20;;;8.60;99.90;;;;;;10299962;28;20238;-79
2023/11/26 11:08:57;;;;;;;5.50;4.23;;;8.60;99.90;;;;;;10315118;28;20234;-79
2023/11/26 11:14:01;;;;;;;3.73;3.40;;;8.80;99.90;;;;;;10312953;28;20293;-79
2023/11/26 11:19:05;;;;;;;4.43;3.67;;;8.80;99.90;;;;;;10288692;28;20207;-79
2023/11/26 11:24:19;;;;;;;4.33;3.47;;;8.80;99.90;;;;;;10321344;28;20227;-78
2023/11/26 11:29:34;;;;;;;4.57;4.17;;;8.70;99.90;;;;;;10311988;28;20700;-77
2023/11/26 11:34:38;;;;;;;4.33;3.93;;;8.60;99.90;;;;;;10300920;28;20297;-78
2023/11/26 11:39:46;;;;;;;4.00;3.70;;;8.50;99.90;;;;;;10319115;28;20203;-79
2023/11/26 11:44:49;;;;;;;4.20;3.80;;;8.40;99.90;;;;;;10299996;28;20890;-80
2023/11/26 11:50:07;;;;;;;3.90;3.60;;;8.30;99.90;;;;;;10323559;28;20215;-80
2023/11/26 11:55:51;;;;;;;4.80;3.40;;;8.30;99.90;;;;;;10308181;28;20226;-78
2023/11/26 12:00:57;;;;;;;4.77;3.40;;;8.30;99.90;;;;;;10186164;29;20216;-80
2023/11/26 12:06:11;;;;;;;6.27;3.17;;;8.40;99.90;;;;;;10281049;28;20554;-79
2023/11/26 12:11:13;;;;;;;3.03;2.80;;;8.40;99.90;;;;;;10315263;28;20238;-80
2023/11/26 12:16:16;;;;;;;3.40;3.20;;;8.50;99.90;;;;;;10311989;28;20369;-80
2023/11/26 12:21:22;;;;;;;3.60;3.30;;;8.60;99.90;;;;;;10317972;28;20219;-80
2023/11/26 12:26:34;;;;;;;3.90;3.57;;;8.70;99.90;;;;;;10321260;28;20227;-80
2023/11/26 12:31:36;;;;;;;4.20;3.17;;;8.80;99.90;;;;;;10313713;28;20195;-80
2023/11/26 12:36:40;;;;;;;3.90;3.50;;;8.80;99.90;;;;;;10314019;28;20223;-78
2023/11/26 12:41:44;;;;;;;3.80;3.30;;;8.80;99.90;;;;;;10336039;28;20203;-79
2023/11/26 12:46:46;;;;;;;4.60;3.70;;;8.70;99.90;;;;;;10297559;28;20301;-80
2023/11/26 12:51:54;;;;;;;5.33;3.40;;;8.60;99.90;;;;;;10307838;28;20222;-80
2023/11/26 12:56:57;;;;;;;5.23;3.80;;;8.50;99.90;;;;;;10318989;28;20234;-80
2023/11/26 13:02:12;;;;;;;5.07;3.13;;;8.60;99.90;;;;;;10302396;28;20220;-79
2023/11/26 13:07:16;;;;;;;6.90;3.60;;;8.60;99.90;;;;;;10315756;28;20214;-79
2023/11/26 13:12:19;;;;;;;3.07;2.87;;;8.60;99.90;;;;;;10314771;28;20200;-79
2023/11/26 13:17:21;;;;;;;6.50;3.20;;;8.60;99.90;;;;;;10321475;28;20199;-79
2023/11/26 13:22:25;;;;;;;3.17;2.87;;;8.70;99.90;;;;;;10321430;28;20247;-79
2023/11/26 13:27:27;;;;;;;3.27;2.80;;;8.70;99.90;;;;;;10338541;28;20215;-79
2023/11/26 13:32:29;;;;;;;3.00;2.67;;;8.70;99.90;;;;;;10323245;28;20219;-77
2023/11/26 13:37:33;;;;;;;3.03;2.57;;;8.70;99.90;;;;;;10326077;28;20269;-80
2023/11/26 13:42:35;;;;;;;3.63;2.50;;;8.60;99.90;;;;;;10318735;28;20220;-77
2023/11/26 13:47:38;;;;;;;3.63;3.03;;;8.60;99.90;;;;;;10303059;28;20215;-79
2023/11/26 13:52:42;;;;;;;8.03;3.60;;;8.50;99.90;;;;;;10291660;28;20716;-77
2023/11/26 13:57:44;;;;;;;3.30;3.00;;;8.50;99.90;;;;;;10326841;28;20206;-79
2023/11/26 14:02:47;;;;;;;4.80;3.17;;;8.40;99.90;;;;;;10310806;28;20696;-80
2023/11/26 14:07:52;;;;;;;4.93;3.20;;;8.40;99.90;;;;;;10320616;28;20227;-79
2023/11/26 14:12:55;;;;;;;3.40;2.70;;;8.30;99.90;;;;;;10313084;28;20236;-79
2023/11/26 14:17:58;;;;;;;3.43;3.10;;;8.30;99.90;;;;;;10329834;28;20207;-79
2023/11/26 14:23:02;;;;;;;4.00;3.50;;;8.30;99.90;;;;;;10303753;28;20227;-78
2023/11/26 14:28:05;;;;;;;5.00;2.67;;;8.30;99.90;;;;;;10302981;28;20565;-79
2023/11/26 14:33:07;;;;;;;3.40;3.10;;;8.30;99.90;;;;;;10308491;28;20269;-79
2023/11/26 14:38:12;;;;;;;3.90;3.10;;;8.30;99.90;;;;;;10324204;28;20207;-78
2023/11/26 14:43:14;;;;;;;4.20;3.80;;;8.30;99.90;;;;;;10309019;28;20257;-78
2023/11/26 14:48:17;;;;;;;3.87;2.90;;;8.30;99.90;;;;;;10324828;28;20646;-79
2023/11/26 14:53:21;;;;;;;3.00;2.60;;;8.30;99.90;;;;;;10320053;28;20531;-79
2023/11/26 14:58:23;;;;;;;3.73;3.00;;;8.20;99.90;;;;;;10325123;28;20199;-78
2023/11/26 15:03:26;;;;;;;3.87;3.30;;;8.20;99.90;;;;;;10345263;23;20243;-77
2023/11/26 15:08:30;;;;;;;5.17;3.50;;;8.20;99.90;;;;;;10325056;28;20269;-77
2023/11/26 15:13:32;;;;;;;2.93;2.73;;;8.20;99.90;;;;;;10310247;28;20234;-77
2023/11/26 15:18:34;;;;;;;5.10;3.07;;;8.20;99.90;;;;;;10314007;28;20216;-76
2023/11/26 15:23:38;;;;;;;3.40;3.10;;;8.10;99.90;;;;;;10319795;28;20231;-77
2023/11/26 15:28:40;;;;;;;3.70;2.97;;;8.10;99.90;;;;;;10325640;28;20226;-77
2023/11/26 15:33:43;;;;;;;4.30;3.30;;;8.00;99.90;;;;;;10321043;28;20227;-76
2023/11/26 15:38:51;;;;;;;3.30;3.10;;;7.90;99.90;;;;;;10311821;28;20200;-75
2023/11/26 15:43:54;;;;;;;5.57;3.30;;;7.90;99.90;;;;;;10326247;28;20285;-75
2023/11/26 15:48:57;;;;;;;4.37;3.40;;;7.90;99.90;;;;;;10309835;28;20223;-76
2023/11/26 15:54:01;;;;;;;5.60;3.37;;;7.80;99.90;;;;;;10313419;28;20219;-76
2023/11/26 15:59:04;;;;;;;3.30;3.00;;;7.90;99.90;;;;;;10320170;28;20191;-75
2023/11/26 16:04:06;;;;;;;4.87;4.20;;;7.80;99.90;;;;;;10316555;28;20239;-75
2023/11/26 16:09:10;;;;;;;5.97;3.40;;;7.70;99.90;;;;;;10277641;28;20291;-76
2023/11/26 16:14:12;;;;;;;4.57;3.67;;;7.70;99.90;;;;;;10316013;28;20223;-76
2023/11/26 16:19:15;;;;;;;4.37;3.97;;;7.60;99.90;;;;;;10306864;28;20674;-75
2023/11/26 16:24:18;;;;;;;7.07;5.30;;;7.60;99.90;;;;;;10319896;28;20231;-76
2023/11/26 16:29:21;;;;;;;3.90;3.43;;;7.50;99.90;;;;;;10291579;28;20612;-75
2023/11/26 16:34:23;;;;;;;6.37;4.40;;;7.50;99.90;;;;;;10313441;28;20246;-75
2023/11/26 16:39:27;;;;;;;7.70;4.80;;;7.50;99.90;;;;;;10316382;28;20673;-75
2023/11/26 16:44:30;;;;;;;5.43;4.57;;;7.40;99.90;;;;;;10315708;28;20223;-75
2023/11/26 16:49:32;;;;;;;4.40;3.83;;;7.40;99.90;;;;;;10318496;28;20644;-74
2023/11/26 16:54:36;;;;;;;8.40;4.80;;;7.40;99.90;;;;;;10305305;28;20273;-75
2023/11/26 16:59:39;;;;;;;5.63;4.20;;;7.40;99.90;;;;;;10318617;28;20691;-75
2023/11/26 17:04:41;;;;;;;6.70;4.63;;;7.40;99.90;;;;;;10293460;28;20223;-75
2023/11/26 17:09:45;;;;;;;7.00;5.57;;;7.30;99.90;;;;;;10306854;28;20563;-75
2023/11/26 17:14:47;;;;;;;5.00;4.50;;;7.30;99.90;;;;;;10306822;28;20230;-74
2023/11/26 17:19:50;;;;;;;4.40;4.00;;;7.40;99.90;;;;;;10287849;28;20569;-74
2023/11/26 17:24:53;;;;;;;7.17;5.47;;;7.30;99.90;;;;;;10309098;28;20238;-75
2023/11/26 17:29:56;;;;;;;6.10;3.90;;;7.30;99.90;;;;;;10311750;28;20215;-75
2023/11/26 17:34:58;;;;;;;4.30;3.93;;;7.30;99.90;;;;;;10311351;28;20222;-75
2023/11/26 17:40:03;;;;;;;5.00;4.50;;;7.20;99.90;;;;;;10311083;28;20200;-74
2023/11/26 17:45:07;;;;;;;4.90;4.37;;;7.10;99.90;;;;;;10309991;28;20216;-77
2023/11/26 17:50:12;;;;;;;6.07;4.67;;;7.10;99.90;;;;;;10309369;28;20693;-77
2023/11/26 17:55:15;;;;;;;5.60;5.10;;;7.10;99.90;;;;;;10308843;28;20219;-74
2023/11/26 18:00:19;;;;;;;4.97;4.30;;;7.10;99.90;;;;;;10284798;28;20200;-76
2023/11/26 18:05:21;;;;;;;4.97;4.57;;;7.10;99.90;;;;;;10291383;28;20235;-77
2023/11/26 18:10:26;;;;;;;4.37;3.97;;;7.10;99.90;;;;;;10315706;28;20219;-77
2023/11/26 18:15:28;;;;;;;5.27;4.87;;;7.10;99.90;;;;;;10296750;28;20638;-77
2023/11/26 18:20:31;;;;;;;4.33;4.03;;;7.10;99.90;;;;;;10318899;28;20198;-75
2023/11/26 18:25:34;;;;;;;5.20;3.93;;;7.10;99.90;;;;;;10313290;28;20223;-77
2023/11/26 18:30:37;;;;;;;4.87;4.47;;;7.00;99.90;;;;;;10313744;28;20246;-76
2023/11/26 18:35:39;;;;;;;5.00;4.60;;;7.00;99.90;;;;;;10329097;28;20223;-76
2023/11/26 18:40:44;;;;;;;3.87;3.67;;;7.00;99.90;;;;;;10329197;28;20191;-74
2023/11/26 18:45:47;;;;;;;4.30;3.97;;;6.90;99.90;;;;;;10327255;28;20641;-76
2023/11/26 18:50:51;;;;;;;4.50;4.20;;;7.00;99.90;;;;;;10310126;28;20222;-76
2023/11/26 18:55:54;;;;;;;4.10;3.80;;;7.00;99.90;;;;;;10326466;28;20246;-75
2023/11/26 19:00:57;;;;;;;3.80;3.50;;;7.00;99.90;;;;;;10326675;28;20604;-77
2023/11/26 19:05:59;;;;;;;3.80;3.50;;;7.00;99.90;;;;;;10325649;28;20235;-77
2023/11/26 19:11:03;;;;;;;5.00;4.60;;;7.00;99.90;;;;;;10307979;28;20227;-75
2023/11/26 19:16:10;;;;;;;4.43;4.10;;;7.10;99.90;;;;;;10306304;28;20211;-77
2023/11/26 19:21:16;;;;;;;4.33;4.03;;;7.10;99.90;;;;;;10307734;28;20749;-77
2023/11/26 19:26:20;;;;;;;4.90;4.30;;;7.10;99.90;;;;;;10306972;28;20223;-77
2023/11/26 19:31:24;;;;;;;4.43;4.03;;;7.20;99.90;;;;;;10306600;28;20293;-76
2023/11/26 19:36:26;;;;;;;4.73;4.33;;;7.20;99.90;;;;;;10309500;28;20215;-76
2023/11/26 19:41:30;;;;;;;4.53;4.23;;;7.20;99.90;;;;;;10322710;28;20253;-77
2023/11/26 19:46:33;;;;;;;5.53;5.03;;;7.20;99.90;;;;;;10321198;28;20273;-77
2023/11/26 19:51:36;;;;;;;5.10;4.70;;;7.20;99.90;;;;;;10312720;28;20230;-77
2023/11/26 19:56:39;;;;;;;4.33;3.93;;;7.20;99.90;;;;;;10318617;28;20219;-77
2023/11/26 20:01:42;;;;;;;4.60;4.17;;;7.30;99.90;;;;;;10314557;28;20199;-78
2023/11/26 20:06:45;;;;;;;4.37;4.07;;;7.30;99.90;;;;;;10315716;28;20291;-77
2023/11/26 20:11:49;;;;;;;4.57;4.20;;;7.30;99.90;;;;;;10289924;28;20227;-77
2023/11/26 20:16:52;;;;;;;4.33;3.93;;;7.30;99.90;;;;;;10307580;28;20292;-76
2023/11/26 20:21:55;;;;;;;5.10;4.67;;;7.30;99.90;;;;;;10298511;28;20195;-77
2023/11/26 20:27:00;;;;;;;4.70;4.30;;;7.30;99.90;;;;;;10299100;28;20216;-78
2023/11/26 20:32:03;;;;;;;6.40;5.80;;;7.30;99.90;;;;;;10286524;28;20273;-77
2023/11/26 20:37:05;;;;;;;5.47;4.80;;;7.30;99.90;;;;;;10305104;28;20219;-77
2023/11/26 20:42:09;;;;;;;5.50;5.00;;;7.30;99.90;;;;;;10303856;28;20195;-77
2023/11/26 20:47:12;;;;;;;4.73;4.33;;;7.30;99.90;;;;;;10314893;28;20222;-77
2023/11/26 20:52:15;;;;;;;5.77;5.30;;;7.30;99.90;;;;;;10314684;28;20258;-77
2023/11/26 20:57:18;;;;;;;7.83;5.20;;;7.30;99.90;;;;;;10297053;28;20700;-77
2023/11/26 21:02:21;;;;;;;6.60;5.77;;;7.30;99.90;;;;;;10296235;28;20191;-77
2023/11/26 21:07:23;;;;;;;4.63;4.23;;;7.30;99.90;;;;;;10316938;23;1069457;-79
2023/11/26 21:12:27;;;;;;;5.47;4.97;;;7.30;99.90;;;;;;10317682;28;20263;-77
2023/11/26 21:17:29;;;;;;;5.40;4.90;;;7.30;99.90;;;;;;10297498;28;20780;-78
2023/11/26 21:22:31;;;;;;;6.90;5.13;;;7.30;99.90;;;;;;10303840;28;20239;-79
2023/11/26 21:27:35;;;;;;;5.03;4.57;;;7.20;99.90;;;;;;10307478;28;20247;-79
2023/11/26 21:32:37;;;;;;;4.90;4.50;;;7.10;99.90;;;;;;10293558;28;20230;-79
2023/11/26 21:37:40;;;;;;;5.80;5.30;;;7.10;99.90;;;;;;10323580;28;20277;-77
2023/11/26 21:42:44;;;;;;;5.60;5.10;;;7.00;99.90;;;;;;10318463;28;20632;-78
2023/11/26 21:47:48;;;;;;;4.90;4.60;;;7.00;99.90;;;;;;10295574;28;20648;-78
2023/11/26 21:52:50;;;;;;;5.30;4.90;;;6.80;99.90;;;;;;10309994;28;20676;-78
2023/11/26 21:57:54;;;;;;;5.00;4.50;;;6.70;99.90;;;;;;10318458;28;20274;-77
2023/11/26 22:02:56;;;;;;;4.83;4.40;;;6.60;99.90;;;;;;10326743;28;20200;-77
2023/11/26 22:07:59;;;;;;;5.67;5.27;;;6.60;99.90;;;;;;10329318;28;20660;-79
2023/11/26 22:13:03;;;;;;;6.43;4.83;;;6.50;99.90;;;;;;10329549;28;20220;-78
2023/11/26 22:18:06;;;;;;;5.20;4.80;;;6.40;99.90;;;;;;10325280;28;20219;-78
2023/11/26 22:23:08;;;;;;;4.90;4.50;;;6.40;99.90;;;;;;10328992;28;20206;-78
2023/11/26 22:28:12;;;;;;;4.83;4.50;;;6.30;99.90;;;;;;10329385;28;20216;-78
2023/11/26 22:33:14;;;;;;;5.30;4.90;;;6.30;99.90;;;;;;10330488;28;20696;-78
2023/11/26 22:38:16;;;;;;;6.67;6.03;;;6.20;99.90;;;;;;10336441;28;20224;-78
2023/11/26 22:43:20;;;;;;;6.90;5.80;;;6.20;99.90;;;;;;10328713;28;20191;-78
2023/11/26 22:48:23;;;;;;;16.27;10.70;;;6.20;99.90;;;;;;10334273;28;20216;-77
2023/11/26 22:53:25;;;;;;;15.20;9.43;;;6.10;99.90;;;;;;10329832;28;20595;-78
2023/11/26 22:58:29;;;;;;;7.67;6.90;;;6.10;99.90;;;;;;10328042;28;20235;-78
2023/11/26 23:03:31;;;;;;;5.70;5.10;;;6.10;99.90;;;;;;10347424;28;20202;-78
2023/11/26 23:08:34;;;;;;;7.97;5.10;;;6.10;99.90;;;;;;10309399;28;20239;-78
2023/11/26 23:13:38;;;;;;;5.67;5.27;;;6.20;99.90;;;;;;10292550;28;20283;-77
2023/11/26 23:18:40;;;;;;;5.13;4.73;;;6.20;99.90;;;;;;10295373;28;20291;-78
2023/11/26 23:23:44;;;;;;;4.50;4.20;;;6.20;99.90;;;;;;10303680;28;20223;-79
2023/11/26 23:28:47;;;;;;;4.63;4.23;;;6.20;99.90;;;;;;10322761;28;20220;-78
2023/11/26 23:33:50;;;;;;;5.17;4.70;;;6.20;99.90;;;;;;10302870;28;20278;-78
2023/11/26 23:38:52;;;;;;;4.80;4.40;;;6.20;99.90;;;;;;10314916;28;20719;-78
2023/11/26 23:43:56;;;;;;;5.57;4.40;;;6.20;99.90;;;;;;10309781;28;20187;-79
2023/11/26 23:48:58;;;;;;;4.50;4.17;;;6.20;99.90;;;;;;10308124;28;20222;-79
2023/11/26 23:54:00;;;;;;;4.40;4.10;;;6.10;99.90;;;;;;10301868;28;20706;-79
2023/11/26 23:59:04;;;;;;;4.60;4.30;;;6.20;99.90;;;;;;10301250;28;20215;-79
